Time;durP1;ratioP1;P1;durP2;ratioP2;P2;SDS_P1;SDS_P2;PMS_P1;PMS_P2;Temp;Humidity;BMP_temperature;BMP_pressure;BME280_temperature;BME280_humidity;BME280_pressure;Samples;Min_cycle;Max_cycle;Signal;HPM_P1;HPM_P2
2022/03/28 00:00:14;;;;;;;12.48;3.15;;;8.40;99.90;;;;;;5013482;28;20108;-37
2022/03/28 00:02:41;;;;;;;18.27;3.08;;;8.40;99.90;;;;;;5013971;28;20026;-37
2022/03/28 00:05:13;;;;;;;17.23;2.92;;;8.30;99.90;;;;;;4995820;28;20128;-37
2022/03/28 00:07:40;;;;;;;8.20;2.28;;;8.30;99.90;;;;;;5013170;28;20394;-37
2022/03/28 00:10:07;;;;;;;17.58;2.78;;;8.20;99.90;;;;;;5013055;28;20018;-37
2022/03/28 00:12:33;;;;;;;19.15;2.67;;;8.10;99.90;;;;;;5013140;28;20034;-39
2022/03/28 00:14:59;;;;;;;20.90;2.13;;;8.10;99.90;;;;;;5013313;28;20018;-37
2022/03/28 00:17:24;;;;;;;22.92;3.88;;;8.10;99.90;;;;;;5012947;28;20038;-39
2022/03/28 00:19:50;;;;;;;8.55;2.15;;;8.20;99.90;;;;;;5009192;28;20069;-31
2022/03/28 00:22:16;;;;;;;26.73;3.42;;;8.20;99.90;;;;;;5013088;28;20026;-29
2022/03/28 00:24:41;;;;;;;23.67;4.47;;;8.20;99.90;;;;;;5013042;28;20109;-32
2022/03/28 00:27:07;;;;;;;21.98;2.78;;;8.20;99.90;;;;;;5013255;28;20034;-31
2022/03/28 00:29:32;;;;;;;19.33;2.95;;;8.10;99.90;;;;;;5012638;28;20497;-30
2022/03/28 00:31:58;;;;;;;16.35;2.70;;;8.00;99.90;;;;;;5012969;28;20022;-47
2022/03/28 00:34:24;;;;;;;18.35;3.03;;;8.00;99.90;;;;;;5013023;28;20026;-37
2022/03/28 00:36:50;;;;;;;23.67;2.90;;;8.00;99.90;;;;;;5013390;28;20026;-37
2022/03/28 00:39:19;;;;;;;20.48;4.00;;;8.00;99.90;;;;;;5012631;28;20022;-40
2022/03/28 00:41:44;;;;;;;15.07;3.58;;;7.90;99.90;;;;;;5013385;28;20053;-37
2022/03/28 00:44:10;;;;;;;17.52;3.00;;;7.90;99.90;;;;;;5013045;28;20026;-37
2022/03/28 00:46:35;;;;;;;23.27;2.72;;;7.90;99.90;;;;;;5012481;28;20061;-37
2022/03/28 00:49:01;;;;;;;16.63;2.92;;;7.80;99.90;;;;;;5012340;28;20033;-39
2022/03/28 00:51:27;;;;;;;29.38;3.38;;;7.80;99.90;;;;;;5013103;28;20470;-39
2022/03/28 00:53:53;;;;;;;11.23;2.03;;;7.70;99.90;;;;;;5012900;28;20037;-38
2022/03/28 00:56:20;;;;;;;15.45;2.83;;;7.70;99.90;;;;;;5013298;28;20532;-38
2022/03/28 00:58:46;;;;;;;18.63;2.88;;;7.60;99.90;;;;;;5012235;28;20403;-38
2022/03/28 01:01:12;;;;;;;23.92;2.65;;;7.60;99.90;;;;;;5012932;28;20014;-36
2022/03/28 01:03:38;;;;;;;23.77;2.78;;;7.60;99.90;;;;;;5013010;28;20032;-37
2022/03/28 01:06:05;;;;;;;15.68;2.72;;;7.60;99.90;;;;;;5012785;28;20101;-37
2022/03/28 01:08:33;;;;;;;10.53;2.83;;;7.50;99.90;;;;;;4997119;28;20025;-40
2022/03/28 01:11:03;;;;;;;11.23;2.60;;;7.60;99.90;;;;;;5014783;28;20018;-38
2022/03/28 01:13:30;;;;;;;19.23;3.88;;;7.50;99.90;;;;;;5016753;28;20022;-37
2022/03/28 01:15:56;;;;;;;21.58;3.05;;;7.40;99.90;;;;;;5016254;28;20033;-37
2022/03/28 01:18:22;;;;;;;20.00;3.53;;;7.40;99.90;;;;;;5016538;28;20237;-36
2022/03/28 01:20:47;;;;;;;16.30;3.10;;;7.40;99.90;;;;;;5016439;28;20029;-45
2022/03/28 01:23:13;;;;;;;15.10;3.53;;;7.40;99.90;;;;;;5016415;28;20512;-38
2022/03/28 01:25:39;;;;;;;13.27;2.30;;;7.30;99.90;;;;;;5016323;28;20048;-37
2022/03/28 01:28:04;;;;;;;9.90;2.60;;;7.30;99.90;;;;;;5016288;28;20072;-36
2022/03/28 01:30:32;;;;;;;15.75;2.53;;;7.30;99.90;;;;;;5016100;28;20060;-37
2022/03/28 01:32:59;;;;;;;18.65;3.22;;;7.30;99.90;;;;;;5016140;28;20033;-37
2022/03/28 01:35:26;;;;;;;20.33;3.08;;;7.30;99.90;;;;;;5016411;28;20496;-38
2022/03/28 01:37:52;;;;;;;12.90;2.33;;;7.20;99.90;;;;;;5016285;28;20022;-36
2022/03/28 01:40:17;;;;;;;11.73;2.58;;;7.30;99.90;;;;;;5016135;28;20037;-38
2022/03/28 01:42:45;;;;;;;13.38;2.65;;;7.30;99.90;;;;;;5016078;28;20025;-36
2022/03/28 01:45:12;;;;;;;13.52;2.83;;;7.20;99.90;;;;;;5015981;28;20489;-36
2022/03/28 01:47:38;;;;;;;12.57;2.78;;;7.20;99.90;;;;;;5015849;28;20022;-37
2022/03/28 01:50:04;;;;;;;9.65;2.47;;;7.20;99.90;;;;;;5015705;28;20378;-35
2022/03/28 01:52:30;;;;;;;21.30;2.67;;;7.20;99.90;;;;;;5015697;28;20525;-38
2022/03/28 01:54:55;;;;;;;13.23;2.78;;;7.10;99.90;;;;;;5016026;28;20104;-55
2022/03/28 01:57:21;;;;;;;15.65;2.95;;;7.10;99.90;;;;;;5015472;28;20030;-36
2022/03/28 01:59:46;;;;;;;13.35;3.08;;;7.10;99.90;;;;;;5015829;28;20025;-37
2022/03/28 02:02:12;;;;;;;11.57;2.90;;;7.00;99.90;;;;;;5015738;28;20026;-36
2022/03/28 02:04:38;;;;;;;19.80;3.97;;;7.00;99.90;;;;;;5016037;28;20025;-36
2022/03/28 02:07:03;;;;;;;23.25;3.30;;;7.00;99.90;;;;;;5015436;28;20493;-36
2022/03/28 02:09:29;;;;;;;11.88;2.45;;;7.00;99.90;;;;;;5015400;28;20037;-39
2022/03/28 02:11:54;;;;;;;14.07;3.05;;;6.90;99.90;;;;;;5015725;28;20033;-38
2022/03/28 02:14:20;;;;;;;16.20;3.75;;;6.90;99.90;;;;;;5015025;28;20033;-38
2022/03/28 02:16:46;;;;;;;16.27;3.17;;;6.90;99.90;;;;;;5013443;28;20026;-36
2022/03/28 02:19:11;;;;;;;16.00;3.00;;;6.90;99.90;;;;;;5015289;28;20506;-29
2022/03/28 02:21:37;;;;;;;19.33;4.40;;;6.90;99.90;;;;;;5015389;28;20516;-30
2022/03/28 02:24:03;;;;;;;15.50;2.83;;;6.80;99.90;;;;;;5015216;28;20037;-28
2022/03/28 02:26:28;;;;;;;15.43;3.33;;;6.80;99.90;;;;;;5014983;28;20026;-31
2022/03/28 02:28:57;;;;;;;19.60;4.30;;;6.80;99.90;;;;;;5015322;28;20032;-28
2022/03/28 02:31:23;;;;;;;22.25;3.38;;;6.70;99.90;;;;;;5015032;28;20022;-29
2022/03/28 02:33:48;;;;;;;18.25;3.60;;;6.70;99.90;;;;;;5015389;28;20029;-29
2022/03/28 02:36:14;;;;;;;14.45;3.42;;;6.70;99.90;;;;;;5014436;28;20030;-56
2022/03/28 02:38:39;;;;;;;25.63;4.97;;;6.60;99.90;;;;;;4996666;28;20042;-29
2022/03/28 02:41:05;;;;;;;20.10;4.28;;;6.70;99.90;;;;;;5015168;28;20026;-29
2022/03/28 02:43:30;;;;;;;19.45;3.58;;;6.60;99.90;;;;;;5015189;28;20402;-29
2022/03/28 02:45:56;;;;;;;23.15;4.35;;;6.60;99.90;;;;;;5014702;28;20437;-31
2022/03/28 02:48:22;;;;;;;12.77;3.08;;;6.50;99.90;;;;;;5014902;28;20208;-36
2022/03/28 02:50:49;;;;;;;16.42;3.35;;;6.50;99.90;;;;;;5015125;28;20022;-46
2022/03/28 02:53:15;;;;;;;24.35;5.03;;;6.40;99.90;;;;;;4997367;28;20030;-37
2022/03/28 02:55:41;;;;;;;13.38;3.25;;;6.40;99.90;;;;;;5014681;28;20108;-36
2022/03/28 02:58:07;;;;;;;16.85;4.00;;;6.40;99.90;;;;;;5014370;28;20105;-36
2022/03/28 03:00:32;;;;;;;11.15;3.92;;;6.40;99.90;;;;;;5014477;28;20032;-36
2022/03/28 03:02:58;;;;;;;14.02;3.83;;;6.40;99.90;;;;;;5014460;28;20041;-37
2022/03/28 03:05:24;;;;;;;14.77;4.03;;;6.40;99.90;;;;;;5014503;28;20390;-29
2022/03/28 03:07:50;;;;;;;20.88;4.38;;;6.40;99.90;;;;;;5014628;28;20542;-29
2022/03/28 03:10:15;;;;;;;17.77;3.72;;;6.40;99.90;;;;;;5014677;28;20470;-29
2022/03/28 03:12:41;;;;;;;8.98;3.60;;;6.30;99.90;;;;;;5014173;28;20026;-36
2022/03/28 03:15:07;;;;;;;13.00;3.95;;;6.30;99.90;;;;;;5014269;28;20536;-36
2022/03/28 03:17:33;;;;;;;23.90;4.15;;;6.30;99.90;;;;;;5014314;28;20571;-44
2022/03/28 03:19:59;;;;;;;11.57;4.20;;;6.30;99.90;;;;;;5014328;28;20026;-32
2022/03/28 03:22:24;;;;;;;15.93;4.97;;;6.20;99.90;;;;;;5013782;28;20034;-32
2022/03/28 03:24:50;;;;;;;16.52;4.70;;;6.20;99.90;;;;;;5014234;28;20030;-28
2022/03/28 03:27:16;;;;;;;13.45;4.32;;;6.20;99.90;;;;;;5014162;28;20478;-28
2022/03/28 03:29:42;;;;;;;20.92;4.93;;;6.20;99.90;;;;;;5013640;28;20109;-29
2022/03/28 03:32:08;;;;;;;9.70;4.00;;;6.10;99.90;;;;;;5013990;28;20052;-36
2022/03/28 03:34:34;;;;;;;18.48;4.35;;;6.10;99.90;;;;;;4995965;28;20041;-36
2022/03/28 03:37:01;;;;;;;26.95;4.40;;;6.00;99.90;;;;;;5013596;28;20029;-29
2022/03/28 03:39:27;;;;;;;11.15;3.92;;;6.00;99.90;;;;;;5014478;28;20168;-37
2022/03/28 03:41:53;;;;;;;17.63;5.57;;;6.00;99.90;;;;;;5014282;28;20033;-37
2022/03/28 03:44:19;;;;;;;16.38;4.60;;;6.00;99.90;;;;;;5013683;28;20115;-36
2022/03/28 03:46:48;;;;;;;11.25;4.68;;;5.90;99.90;;;;;;5012446;28;20069;-37
2022/03/28 03:49:15;;;;;;;12.32;4.53;;;6.00;99.90;;;;;;5012884;28;20117;-37
2022/03/28 03:51:41;;;;;;;12.55;4.80;;;6.00;99.90;;;;;;5013922;28;20029;-30
2022/03/28 03:54:07;;;;;;;13.65;4.20;;;5.90;99.90;;;;;;5013125;28;20032;-30
2022/03/28 03:56:32;;;;;;;14.25;5.05;;;5.90;99.90;;;;;;5013732;28;20022;-31
2022/03/28 03:58:58;;;;;;;12.05;4.22;;;5.90;99.90;;;;;;5013019;28;20030;-30
2022/03/28 04:01:28;;;;;;;10.73;4.15;;;5.80;99.90;;;;;;5011843;28;20443;-53
2022/03/28 04:03:54;;;;;;;13.15;4.80;;;5.80;99.90;;;;;;5013510;28;20029;-29
2022/03/28 04:06:19;;;;;;;13.55;4.85;;;5.80;99.90;;;;;;5014097;28;20048;-31
2022/03/28 04:08:45;;;;;;;14.32;3.53;;;5.70;99.90;;;;;;5012557;28;20482;-29
2022/03/28 04:11:12;;;;;;;12.35;3.67;;;5.70;99.90;;;;;;5013152;28;20026;-28
2022/03/28 04:13:37;;;;;;;9.40;4.32;;;5.70;99.90;;;;;;5013763;28;20022;-30
2022/03/28 04:16:03;;;;;;;16.17;4.47;;;5.70;99.90;;;;;;5013389;28;20470;-29
2022/03/28 04:18:29;;;;;;;12.68;4.70;;;5.60;99.90;;;;;;5012646;28;20501;-29
2022/03/28 04:20:55;;;;;;;14.98;3.92;;;5.60;99.90;;;;;;5013115;28;20037;-32
2022/03/28 04:23:22;;;;;;;13.57;4.75;;;5.60;99.90;;;;;;5013393;28;20088;-33
2022/03/28 04:25:48;;;;;;;13.93;4.97;;;5.50;99.90;;;;;;5013367;28;20044;-28
2022/03/28 04:28:13;;;;;;;17.08;5.03;;;5.50;99.90;;;;;;5013206;28;20029;-47
2022/03/28 04:30:39;;;;;;;15.13;4.68;;;5.40;99.90;;;;;;5013003;28;20080;-38
2022/03/28 04:33:07;;;;;;;8.40;4.28;;;5.40;99.90;;;;;;5012840;28;20490;-36
2022/03/28 04:35:33;;;;;;;11.55;4.93;;;5.40;99.90;;;;;;4995271;28;20068;-36
2022/03/28 04:38:00;;;;;;;8.23;4.03;;;5.40;99.90;;;;;;5013025;28;20026;-36
2022/03/28 04:40:26;;;;;;;10.82;5.45;;;5.40;99.90;;;;;;5013537;28;20028;-35
2022/03/28 04:42:51;;;;;;;9.45;4.63;;;5.30;99.90;;;;;;5012838;28;20041;-30
2022/03/28 04:45:17;;;;;;;9.75;4.32;;;5.20;99.90;;;;;;5012696;28;20492;-38
2022/03/28 04:47:43;;;;;;;13.13;4.53;;;5.10;99.90;;;;;;5012647;28;20030;-29
2022/03/28 04:50:09;;;;;;;14.55;4.38;;;5.10;99.90;;;;;;5013276;28;20109;-40
2022/03/28 04:52:35;;;;;;;13.57;4.10;;;4.90;99.90;;;;;;5012790;28;20034;-46
2022/03/28 04:55:01;;;;;;;7.63;4.10;;;4.80;99.90;;;;;;4994525;28;20168;-29
2022/03/28 04:57:27;;;;;;;8.32;4.15;;;4.90;99.90;;;;;;5012669;28;20398;-31
2022/03/28 04:59:53;;;;;;;17.52;4.65;;;4.90;99.90;;;;;;5013169;28;20026;-29
2022/03/28 05:02:19;;;;;;;8.55;4.28;;;4.80;99.90;;;;;;5012431;28;20022;-28
2022/03/28 05:04:44;;;;;;;6.13;3.38;;;4.80;99.90;;;;;;5012936;28;20140;-30
2022/03/28 05:07:10;;;;;;;7.88;4.47;;;4.70;99.90;;;;;;5012220;28;20026;-34
2022/03/28 05:09:36;;;;;;;10.55;4.50;;;4.70;99.90;;;;;;5013125;28;20060;-30
2022/03/28 05:12:02;;;;;;;8.75;4.80;;;4.70;99.90;;;;;;5012646;28;20199;-35
2022/03/28 05:14:27;;;;;;;8.20;4.35;;;4.70;99.90;;;;;;5012888;28;20026;-29
2022/03/28 05:16:53;;;;;;;8.25;4.03;;;4.80;99.90;;;;;;5012601;28;20025;-29
2022/03/28 05:19:19;;;;;;;6.00;4.05;;;4.80;99.90;;;;;;5012643;28;20156;-30
2022/03/28 05:21:44;;;;;;;14.32;4.38;;;4.70;99.90;;;;;;4993799;28;20038;-32
2022/03/28 05:24:10;;;;;;;9.85;4.63;;;4.70;99.90;;;;;;5011760;28;20057;-33
2022/03/28 05:26:35;;;;;;;10.32;5.47;;;4.70;99.90;;;;;;5012217;28;20034;-29
2022/03/28 05:29:01;;;;;;;8.43;4.85;;;4.80;99.90;;;;;;5012195;28;20018;-29
2022/03/28 05:31:27;;;;;;;9.63;4.75;;;4.80;99.90;;;;;;5012907;28;20045;-32
2022/03/28 05:33:52;;;;;;;9.35;4.80;;;4.80;99.90;;;;;;5012265;28;20399;-28
2022/03/28 05:36:18;;;;;;;6.13;4.07;;;4.70;99.90;;;;;;5012489;28;20022;-31
2022/03/28 05:38:44;;;;;;;15.60;5.43;;;4.70;99.90;;;;;;5011846;28;20052;-31
2022/03/28 05:41:10;;;;;;;10.77;4.40;;;4.70;99.90;;;;;;4995136;28;20033;-29
2022/03/28 05:43:37;;;;;;;11.63;4.90;;;4.70;99.90;;;;;;5012194;28;20033;-29
2022/03/28 05:46:03;;;;;;;11.48;4.13;;;4.70;99.90;;;;;;5012372;28;20068;-30
2022/03/28 05:48:29;;;;;;;8.85;4.72;;;4.80;99.90;;;;;;5011524;28;20088;-30
2022/03/28 05:50:55;;;;;;;9.27;4.82;;;4.80;99.90;;;;;;5012301;28;20026;-33
2022/03/28 05:53:21;;;;;;;11.52;5.28;;;4.90;99.90;;;;;;5012087;28;20367;-29
2022/03/28 05:55:47;;;;;;;9.45;4.82;;;4.80;99.90;;;;;;5015717;28;20022;-30
2022/03/28 05:58:12;;;;;;;14.23;5.53;;;4.70;99.90;;;;;;5015749;28;20030;-29
2022/03/28 06:00:38;;;;;;;13.10;4.53;;;4.80;99.90;;;;;;5014844;28;20044;-31
2022/03/28 06:03:04;;;;;;;15.38;4.72;;;4.80;99.90;;;;;;5015380;28;20083;-31
2022/03/28 06:05:36;;;;;;;9.90;4.85;;;4.80;99.90;;;;;;5014877;28;20030;-28
2022/03/28 06:08:01;;;;;;;8.75;4.68;;;4.80;99.90;;;;;;5013317;28;20026;-31
2022/03/28 06:10:27;;;;;;;14.90;4.90;;;4.80;99.90;;;;;;5014233;28;20049;-31
2022/03/28 06:12:52;;;;;;;12.18;4.80;;;4.90;99.90;;;;;;5015677;28;20030;-33
2022/03/28 06:15:18;;;;;;;11.45;4.97;;;5.00;99.90;;;;;;4997918;28;20014;-35
2022/03/28 06:17:44;;;;;;;13.10;5.90;;;5.00;99.90;;;;;;5015069;28;20399;-31
2022/03/28 06:20:13;;;;;;;7.90;4.35;;;5.10;99.90;;;;;;5015657;28;20026;-31
2022/03/28 06:22:39;;;;;;;9.48;4.93;;;5.10;99.90;;;;;;4996807;28;20037;-33
2022/03/28 06:25:06;;;;;;;13.13;5.70;;;5.20;99.90;;;;;;5013352;28;20056;-29
2022/03/28 06:27:31;;;;;;;8.43;4.05;;;5.20;99.90;;;;;;5015097;28;20084;-32
2022/03/28 06:29:57;;;;;;;14.88;5.03;;;5.30;99.90;;;;;;5014738;28;20030;-30
2022/03/28 06:32:23;;;;;;;16.88;6.28;;;5.30;99.90;;;;;;5015514;28;20131;-29
2022/03/28 06:34:49;;;;;;;9.65;5.07;;;5.40;99.90;;;;;;5014217;28;20378;-31
2022/03/28 06:37:21;;;;;;;10.90;5.25;;;5.40;99.90;;;;;;5014667;28;20482;-33
2022/03/28 06:39:47;;;;;;;12.48;5.15;;;5.40;99.90;;;;;;5004349;28;20029;-29
2022/03/28 06:42:13;;;;;;;11.75;5.25;;;5.40;99.90;;;;;;5013208;28;20501;-31
2022/03/28 06:44:38;;;;;;;13.98;5.55;;;5.50;99.90;;;;;;5014910;28;20046;-29
2022/03/28 06:47:04;;;;;;;12.50;5.55;;;5.60;99.90;;;;;;5013566;28;20084;-36
2022/03/28 06:49:30;;;;;;;11.43;5.28;;;5.70;99.90;;;;;;5015025;28;20654;-29
2022/03/28 06:51:56;;;;;;;10.18;5.43;;;5.70;99.90;;;;;;5014611;28;20478;-29
2022/03/28 06:54:22;;;;;;;12.35;5.30;;;5.70;99.90;;;;;;5014325;28;20529;-46
2022/03/28 06:56:47;;;;;;;13.40;4.82;;;5.90;99.90;;;;;;5014697;28;20022;-29
2022/03/28 06:59:13;;;;;;;9.90;4.88;;;6.00;99.90;;;;;;5015016;28;20095;-30
2022/03/28 07:01:41;;;;;;;10.98;4.60;;;6.00;99.90;;;;;;5014711;28;20026;-30
2022/03/28 07:04:10;;;;;;;9.27;4.15;;;5.90;99.90;;;;;;5012823;28;20025;-33
2022/03/28 07:06:37;;;;;;;11.65;4.93;;;5.80;99.90;;;;;;4992918;28;20111;-30
2022/03/28 07:09:06;;;;;;;10.48;5.03;;;5.80;99.90;;;;;;4996727;28;20493;-32
2022/03/28 07:11:32;;;;;;;10.75;5.18;;;5.80;99.90;;;;;;5014506;28;20095;-30
2022/03/28 07:13:58;;;;;;;9.98;5.55;;;5.80;99.90;;;;;;5013424;28;20490;-30
2022/03/28 07:16:23;;;;;;;11.23;5.15;;;5.90;99.90;;;;;;5014096;28;20026;-30
2022/03/28 07:18:50;;;;;;;15.18;5.43;;;6.10;99.90;;;;;;5012161;28;20042;-32
2022/03/28 07:21:15;;;;;;;9.15;5.05;;;6.20;99.90;;;;;;5010833;28;20496;-37
2022/03/28 07:23:42;;;;;;;13.98;5.20;;;6.40;99.90;;;;;;5006139;28;21313;-41
2022/03/28 07:26:08;;;;;;;12.88;5.13;;;6.60;99.90;;;;;;5007085;28;20405;-36
2022/03/28 07:28:35;;;;;;;11.00;5.60;;;6.70;99.90;;;;;;5013614;28;20504;-37
2022/03/28 07:31:01;;;;;;;13.80;5.85;;;6.80;99.90;;;;;;5014422;28;20044;-37
2022/03/28 07:33:26;;;;;;;20.33;6.00;;;6.70;99.90;;;;;;4976793;28;20113;-32
2022/03/28 07:35:52;;;;;;;11.60;5.40;;;6.60;99.90;;;;;;4994752;28;20104;-34
2022/03/28 07:38:18;;;;;;;9.40;5.35;;;6.70;99.90;;;;;;4994867;28;20449;-29
2022/03/28 07:40:45;;;;;;;9.07;4.90;;;6.80;99.90;;;;;;5006471;28;20034;-29
2022/03/28 07:43:10;;;;;;;12.38;5.22;;;6.90;99.90;;;;;;5013804;28;20362;-30
2022/03/28 07:45:36;;;;;;;10.50;5.20;;;7.00;99.90;;;;;;5013902;28;20060;-47
2022/03/28 07:48:02;;;;;;;15.20;6.10;;;7.00;99.90;;;;;;5013622;28;20504;-37
2022/03/28 07:50:30;;;;;;;12.63;5.85;;;7.10;99.90;;;;;;5013483;28;20466;-36
2022/03/28 07:52:56;;;;;;;16.35;6.13;;;7.30;99.90;;;;;;5013882;28;20065;-37
2022/03/28 07:55:22;;;;;;;17.65;5.32;;;7.40;99.90;;;;;;5013715;28;20030;-38
2022/03/28 07:57:47;;;;;;;10.30;5.45;;;7.60;99.90;;;;;;5013434;28;20033;-37
2022/03/28 08:00:19;;;;;;;12.07;5.80;;;7.60;99.90;;;;;;5013514;28;20030;-36
2022/03/28 08:02:44;;;;;;;11.98;5.75;;;7.60;99.90;;;;;;5011225;28;20037;-37
2022/03/28 08:05:11;;;;;;;14.77;5.50;;;7.60;99.90;;;;;;5010993;28;20022;-38
2022/03/28 08:07:36;;;;;;;15.95;6.03;;;7.60;99.90;;;;;;4994850;28;20061;-38
2022/03/28 08:10:07;;;;;;;16.83;5.68;;;7.70;99.90;;;;;;4994816;28;20513;-38
2022/03/28 08:12:36;;;;;;;12.50;6.00;;;7.80;99.90;;;;;;5013192;28;20057;-38
2022/03/28 08:15:01;;;;;;;14.15;5.53;;;7.90;99.90;;;;;;5008988;28;20026;-38
2022/03/28 08:17:27;;;;;;;14.73;5.97;;;8.00;99.90;;;;;;4993426;28;20041;-39
2022/03/28 08:19:53;;;;;;;12.25;5.40;;;8.10;99.90;;;;;;5007525;28;20036;-37
2022/03/28 08:22:18;;;;;;;11.23;5.57;;;8.10;99.90;;;;;;5008754;28;20028;-34
2022/03/28 08:24:44;;;;;;;12.85;5.60;;;7.90;99.90;;;;;;5005984;28;20029;-35
2022/03/28 08:27:09;;;;;;;10.13;5.15;;;8.00;99.90;;;;;;5007438;28;20030;-46
2022/03/28 08:29:35;;;;;;;13.10;5.47;;;8.10;99.90;;;;;;4983540;28;20032;-36
2022/03/28 08:32:02;;;;;;;11.23;5.05;;;8.30;99.90;;;;;;5005138;28;20482;-38
2022/03/28 08:34:29;;;;;;;19.53;6.13;;;8.30;99.90;;;;;;4987246;28;20030;-33
2022/03/28 08:36:57;;;;;;;22.33;7.32;;;8.30;99.90;;;;;;5004424;28;20272;-68
2022/03/28 08:39:23;;;;;;;14.52;6.57;;;8.50;99.90;;;;;;5005902;28;20026;-37
2022/03/28 08:41:49;;;;;;;10.30;4.82;;;8.50;99.90;;;;;;5004338;28;20021;-34
2022/03/28 08:44:17;;;;;;;18.17;6.25;;;8.60;99.90;;;;;;5002501;28;20076;-37
2022/03/28 08:46:45;;;;;;;15.35;5.45;;;8.50;99.90;;;;;;5015829;28;20037;-37
2022/03/28 08:49:12;;;;;;;10.55;5.43;;;8.70;99.90;;;;;;5010569;28;20022;-38
2022/03/28 08:51:38;;;;;;;13.77;5.85;;;8.70;99.90;;;;;;5011825;28;20014;-38
2022/03/28 08:54:04;;;;;;;7.00;4.93;;;8.70;99.90;;;;;;5011048;28;20025;-39
2022/03/28 08:56:30;;;;;;;10.43;5.95;;;8.70;99.90;;;;;;5012764;28;20018;-38
2022/03/28 08:58:55;;;;;;;16.42;6.22;;;8.90;99.90;;;;;;5010898;28;20026;-37
2022/03/28 09:01:23;;;;;;;8.48;4.57;;;8.90;99.90;;;;;;4994065;28;20470;-36
2022/03/28 09:03:49;;;;;;;9.02;4.90;;;9.10;99.90;;;;;;5013025;28;20036;-43
2022/03/28 09:06:38;;;;;;;14.35;5.65;;;9.20;99.90;;;;;;5009616;28;20365;-37
2022/03/28 09:09:27;;;;;;;14.52;6.00;;;9.40;99.90;;;;;;5011034;28;20398;-38
2022/03/28 09:14:45;;;;;;;12.68;5.40;;;9.60;99.90;;;;;;5012544;28;20040;-38
2022/03/28 09:17:14;;;;;;;12.45;4.88;;;9.70;99.90;;;;;;5012588;28;20080;-38
2022/03/28 09:19:55;;;;;;;10.73;5.53;;;9.80;99.90;;;;;;4991901;28;20046;-30
2022/03/28 09:22:23;;;;;;;10.80;4.35;;;9.70;99.90;;;;;;5003675;28;20038;-32
2022/03/28 09:24:50;;;;;;;;;;;9.80;99.90;;;;;;5012797;28;20029;-30
2022/03/28 09:27:20;;;;;;;10.05;5.13;;;9.90;99.90;;;;;;5010464;28;19917;-30
2022/03/28 09:30:10;;;;;;;9.80;4.78;;;10.00;99.90;;;;;;5015197;28;20054;-31
2022/03/28 09:32:48;;;;;;;13.07;5.65;;;10.10;99.90;;;;;;5015288;28;20438;-29
2022/03/28 09:35:23;;;;;;;10.70;4.95;;;10.20;99.90;;;;;;5016071;28;20494;-34
2022/03/28 09:37:56;;;;;;;15.55;4.18;;;10.30;99.90;;;;;;4998503;28;20032;-36
2022/03/28 09:40:40;;;;;;;6.57;4.53;;;10.30;99.90;;;;;;5015941;28;20033;-33
2022/03/28 09:43:15;;;;;;;13.60;5.13;;;10.50;99.90;;;;;;5000595;28;20025;-30
2022/03/28 09:45:42;;;;;;;13.20;5.25;;;10.60;99.90;;;;;;4992595;28;20038;-31
2022/03/28 09:48:11;;;;;;;9.50;4.57;;;10.60;99.90;;;;;;5016127;28;20438;-34
2022/03/28 09:50:55;;;;;;;13.45;5.35;;;10.70;99.90;;;;;;5016064;28;20029;-30
2022/03/28 09:53:25;;;;;;;12.25;5.57;;;10.80;99.90;;;;;;5006186;28;20472;-41
2022/03/28 09:55:57;;;;;;;14.80;5.28;;;10.80;99.90;;;;;;5014301;28;20050;-38
2022/03/28 09:58:46;;;;;;;11.35;5.00;;;10.80;99.90;;;;;;5015832;28;20398;-54
2022/03/28 10:01:12;;;;;;;12.85;5.47;;;11.00;99.90;;;;;;5012590;28;20030;-34
2022/03/28 10:03:38;;;;;;;23.23;5.28;;;11.10;99.90;;;;;;5011806;28;20030;-38
2022/03/28 10:06:06;;;;;;;10.57;5.65;;;11.00;99.90;;;;;;5015276;28;20056;-51
2022/03/28 10:08:33;;;;;;;12.15;5.53;;;10.90;99.90;;;;;;5015664;28;20092;-39
2022/03/28 10:10:59;;;;;;;9.88;4.93;;;11.10;99.90;;;;;;5015212;28;20541;-73
2022/03/28 10:13:26;;;;;;;16.67;5.55;;;11.20;99.90;;;;;;5015817;28;20098;-38
2022/03/28 10:15:52;;;;;;;13.23;5.17;;;11.20;99.90;;;;;;5015520;28;20482;-36
2022/03/28 10:18:18;;;;;;;12.75;5.35;;;11.20;99.90;;;;;;4997697;28;20038;-36
2022/03/28 10:20:46;;;;;;;11.10;5.20;;;11.30;99.90;;;;;;5014007;28;20030;-38
2022/03/28 10:23:15;;;;;;;18.83;6.35;;;11.30;99.90;;;;;;5015783;28;20096;-58
2022/03/28 10:25:42;;;;;;;13.93;5.07;;;11.40;99.90;;;;;;5015257;28;20535;-37
2022/03/28 10:28:09;;;;;;;10.07;4.63;;;11.50;99.90;;;;;;5015310;28;20087;-38
2022/03/28 10:30:35;;;;;;;13.13;5.82;;;11.60;99.90;;;;;;5014022;28;20030;-32
2022/03/28 10:33:14;;;;;;;12.18;5.15;;;11.70;99.90;;;;;;5011363;28;20018;-37
2022/03/28 10:36:14;;;;;;;13.43;5.15;;;11.80;99.90;;;;;;4995908;28;20501;-38
2022/03/28 10:38:40;;;;;;;14.07;5.78;;;11.80;99.90;;;;;;5011287;28;20116;-45
2022/03/28 10:41:14;;;;;;;10.50;5.32;;;11.90;99.90;;;;;;5014850;28;20511;-38
2022/03/28 10:43:39;;;;;;;15.35;5.03;;;12.00;99.90;;;;;;5014267;28;20033;-38
2022/03/28 10:46:10;;;;;;;11.32;5.03;;;12.10;99.90;;;;;;5014186;28;20482;-39
2022/03/28 10:48:42;;;;;;;11.15;4.90;;;12.10;99.90;;;;;;5014520;28;20120;-38
2022/03/28 10:51:14;;;;;;;15.40;5.75;;;12.20;99.90;;;;;;5013587;28;20474;-38
2022/03/28 10:53:47;;;;;;;13.23;5.30;;;12.40;99.90;;;;;;5011411;28;20053;-39
2022/03/28 10:56:23;;;;;;;15.98;6.10;;;12.60;99.90;;;;;;5014343;28;20037;-38
2022/03/28 10:58:54;;;;;;;16.27;5.82;;;12.70;99.90;;;;;;5014834;28;20116;-38
2022/03/28 11:01:26;;;;;;;15.10;6.22;;;12.70;99.90;;;;;;5014874;28;20161;-38
2022/03/28 11:04:20;;;;;;;13.38;5.50;;;12.80;99.90;;;;;;5014521;28;20041;-38
2022/03/28 11:07:12;;;;;;;17.75;6.50;;;12.80;99.90;;;;;;5011485;28;20137;-39
2022/03/28 11:09:41;;;;;;;16.42;5.97;;;12.80;99.90;;;;;;4995974;28;20458;-58
2022/03/28 11:12:14;;;;;;;14.20;6.35;;;12.90;99.90;;;;;;5012104;28;20116;-39
2022/03/28 11:14:52;;;;;;;18.67;6.55;;;13.10;99.90;;;;;;5011597;28;20470;-76
2022/03/28 11:17:18;;;;;;;12.80;6.57;;;13.20;99.90;;;;;;5012342;28;20156;-51
2022/03/28 11:19:52;;;;;;;16.05;5.22;;;13.30;99.90;;;;;;5009082;28;20134;-43
2022/03/28 11:22:18;;;;;;;23.65;6.75;;;13.50;99.90;;;;;;5012532;28;20030;-43
2022/03/28 11:24:46;;;;;;;14.40;5.78;;;13.70;99.90;;;;;;5012982;28;20037;-31
2022/03/28 11:27:17;;;;;;;13.05;6.13;;;13.90;99.90;;;;;;5012035;28;20481;-31
2022/03/28 11:29:44;;;;;;;11.95;6.18;;;14.10;99.90;;;;;;4995356;28;20448;-29
2022/03/28 11:32:15;;;;;;;16.98;7.07;;;14.30;99.90;;;;;;4996789;28;20443;-32
2022/03/28 11:34:48;;;;;;;11.98;6.20;;;14.40;99.90;;;;;;5014594;28;20099;-47
2022/03/28 11:37:18;;;;;;;14.23;6.50;;;14.40;99.90;;;;;;5013373;28;20030;-37
2022/03/28 11:39:56;;;;;;;14.25;6.07;;;14.50;99.90;;;;;;5010432;28;20037;-39
2022/03/28 11:42:24;;;;;;;17.98;8.02;;;14.70;99.90;;;;;;5014085;28;20029;-37
2022/03/28 11:44:50;;;;;;;14.63;7.30;;;14.80;99.90;;;;;;5014056;28;20030;-38
2022/03/28 11:47:17;;;;;;;14.60;6.28;;;14.80;99.90;;;;;;5013528;28;20030;-39
2022/03/28 11:50:00;;;;;;;17.23;6.43;;;14.90;99.90;;;;;;4996458;28;20041;-38
2022/03/28 11:52:28;;;;;;;16.05;6.50;;;14.90;99.90;;;;;;5013381;28;20268;-37
2022/03/28 11:54:55;;;;;;;20.95;7.15;;;14.90;99.90;;;;;;5014211;28;20026;-37
2022/03/28 12:00:16;;;;;;;15.38;6.97;;;15.10;99.90;;;;;;4994521;28;20041;-38
2022/03/28 12:02:56;;;;;;;16.85;6.70;;;15.10;99.90;;;;;;5001320;28;20023;-36
2022/03/28 12:05:29;;;;;;;16.55;6.78;;;15.30;99.90;;;;;;5013771;28;20080;-36
2022/03/28 12:07:55;;;;;;;24.52;7.18;;;15.30;99.90;;;;;;5013559;28;20500;-32
2022/03/28 12:10:26;;;;;;;20.60;7.13;;;15.20;99.90;;;;;;5013369;28;20014;-32
2022/03/28 12:12:52;;;;;;;18.63;6.40;;;15.10;99.90;;;;;;5013616;28;20029;-30
2022/03/28 12:15:25;;;;;;;18.98;6.28;;;15.20;99.90;;;;;;5013563;28;20482;-35
2022/03/28 12:17:52;;;;;;;15.80;6.05;;;15.40;99.90;;;;;;5013038;28;20467;-36
2022/03/28 12:20:22;;;;;;;13.93;7.55;;;15.50;99.90;;;;;;5013439;28;20030;-38
2022/03/28 12:22:48;;;;;;;20.15;6.85;;;15.50;99.90;;;;;;5013408;28;20034;-37
2022/03/28 12:25:29;;;;;;;13.35;6.55;;;15.40;99.90;;;;;;5013552;28;20107;-36
2022/03/28 12:28:00;;;;;;;15.82;6.05;;;15.30;99.90;;;;;;5012480;28;20045;-37
2022/03/28 12:30:37;;;;;;;8.70;4.97;;;15.30;99.90;;;;;;5013283;28;20030;-36
2022/03/28 12:33:14;;;;;;;12.97;5.77;;;15.60;99.90;;;;;;5013288;28;20486;-36
2022/03/28 12:35:43;;;;;;;9.48;5.45;;;15.70;99.90;;;;;;5013370;28;20025;-36
2022/03/28 12:38:20;;;;;;;18.08;5.43;;;15.90;99.90;;;;;;5013298;28;20030;-38
2022/03/28 12:40:50;;;;;;;15.20;6.22;;;15.70;99.90;;;;;;5012404;28;20022;-38
2022/03/28 12:43:23;;;;;;;14.65;5.90;;;15.80;99.90;;;;;;5013135;28;20057;-38
2022/03/28 12:45:49;;;;;;;17.98;6.28;;;15.70;99.90;;;;;;5013314;28;20057;-37
2022/03/28 12:48:15;;;;;;;12.38;5.57;;;15.90;99.90;;;;;;5012233;28;20057;-39
2022/03/28 12:51:05;;;;;;;13.75;5.82;;;16.10;99.90;;;;;;5003739;28;20394;-39
2022/03/28 12:56:21;;;;;;;18.08;5.80;;;16.10;99.90;;;;;;4998864;28;20450;-38